createdAt,value
2022-08-17T00:00:18.259Z,21.68
2022-08-17T00:03:06.695Z,22.20
2022-08-17T00:05:38.636Z,21.67
2022-08-17T00:08:06.051Z,22.00
2022-08-17T00:10:33.470Z,22.31
2022-08-17T00:13:02.933Z,21.79
2022-08-17T00:15:29.958Z,22.41
2022-08-17T00:17:59.776Z,22.23
2022-08-17T00:20:30.435Z,21.62
2022-08-17T00:23:07.505Z,21.69
2022-08-17T00:25:38.960Z,18.67
2022-08-17T00:28:06.215Z,19.20
2022-08-17T00:30:51.316Z,22.59
2022-08-17T00:33:27.163Z,22.60
2022-08-17T00:35:55.821Z,22.61
2022-08-17T00:38:23.855Z,21.39
2022-08-17T00:40:55.638Z,21.93
2022-08-17T00:43:36.838Z,22.54
2022-08-17T00:46:11.238Z,22.51
2022-08-17T00:48:39.149Z,21.53
2022-08-17T00:51:20.567Z,21.59
2022-08-17T00:53:55.451Z,22.45
2022-08-17T00:56:32.551Z,22.41
2022-08-17T00:58:59.673Z,21.17
2022-08-17T01:01:26.744Z,22.28
2022-08-17T01:03:55.631Z,22.23
2022-08-17T01:06:29.038Z,20.16
2022-08-17T01:08:57.996Z,20.92
2022-08-17T01:11:26.025Z,16.93
2022-08-17T01:13:55.864Z,20.34
2022-08-17T01:16:31.087Z,20.92
2022-08-17T01:19:07.242Z,21.92
2022-08-17T01:21:46.345Z,20.55
2022-08-17T01:24:14.173Z,19.95
2022-08-17T01:26:43.056Z,21.23
2022-08-17T01:29:16.096Z,20.71
2022-08-17T01:31:47.287Z,19.80
2022-08-17T01:34:15.971Z,20.58
2022-08-17T01:36:46.606Z,21.66
2022-08-17T01:39:24.480Z,18.79
2022-08-17T01:41:54.076Z,21.14
2022-08-17T01:44:22.072Z,21.66
2022-08-17T01:46:50.063Z,21.14
2022-08-17T01:49:19.616Z,21.65
2022-08-17T01:51:46.463Z,19.25
2022-08-17T01:54:16.077Z,21.63
2022-08-17T01:56:47.619Z,21.60
2022-08-17T01:59:19.845Z,20.32
2022-08-17T02:01:47.053Z,20.31
2022-08-17T02:04:16.731Z,18.34
2022-08-17T02:06:52.843Z,21.49
2022-08-17T02:09:29.781Z,20.50
2022-08-17T02:12:00.010Z,20.55
2022-08-17T02:14:47.633Z,20.77
2022-08-17T02:17:14.559Z,21.07
2022-08-17T02:19:41.839Z,20.63
2022-08-17T02:22:09.159Z,20.59
2022-08-17T02:24:59.360Z,20.85
2022-08-17T02:27:29.837Z,20.84
2022-08-17T02:30:01.085Z,20.99
2022-08-17T02:32:28.872Z,20.93
2022-08-17T02:34:57.304Z,19.82
2022-08-17T02:37:25.520Z,20.25
2022-08-17T02:39:52.584Z,16.65
2022-08-17T02:42:25.497Z,20.85
2022-08-17T02:44:52.403Z,20.79
2022-08-17T02:47:19.224Z,20.78
2022-08-17T02:49:54.126Z,18.55
2022-08-17T02:52:42.523Z,20.72
2022-08-17T02:55:23.697Z,20.71
2022-08-17T02:57:51.311Z,20.73
2022-08-17T03:00:22.204Z,19.74
2022-08-17T03:02:50.308Z,20.68
2022-08-17T03:05:20.981Z,19.78
2022-08-17T03:07:47.930Z,17.89
2022-08-17T03:10:15.352Z,20.80
2022-08-17T03:12:43.524Z,20.55
2022-08-17T03:15:18.432Z,20.76
2022-08-17T03:17:45.545Z,19.78
2022-08-17T03:20:13.469Z,20.75
2022-08-17T03:22:53.521Z,19.04
2022-08-17T03:25:24.973Z,20.70
2022-08-17T03:27:55.566Z,20.67
2022-08-17T03:30:23.948Z,20.26
2022-08-17T03:32:53.459Z,20.79
2022-08-17T03:35:25.077Z,20.77
2022-08-17T03:38:00.321Z,20.69
2022-08-17T03:40:41.801Z,20.26
2022-08-17T03:43:19.944Z,20.66
2022-08-17T03:46:24.950Z,19.88
2022-08-17T03:49:14.070Z,20.21
2022-08-17T03:52:01.028Z,19.63
2022-08-17T03:54:46.495Z,20.22
2022-08-17T03:57:13.906Z,19.41
2022-08-17T03:59:40.887Z,20.19
2022-08-17T04:02:11.085Z,19.99
2022-08-17T04:04:39.341Z,20.47
2022-08-17T04:07:06.871Z,17.61
2022-08-17T04:09:34.086Z,20.50
2022-08-17T04:12:04.476Z,20.42
2022-08-17T04:14:36.438Z,19.44
2022-08-17T04:17:20.073Z,20.72
2022-08-17T04:19:47.049Z,20.39
2022-08-17T04:22:31.850Z,19.98
2022-08-17T04:25:17.114Z,20.78
2022-08-17T04:27:44.044Z,18.25
2022-08-17T04:30:14.159Z,17.62
2022-08-17T04:33:04.002Z,20.73
2022-08-17T04:35:55.425Z,20.42
2022-08-17T04:38:26.074Z,17.46
2022-08-17T04:41:12.739Z,19.78
2022-08-17T04:43:44.387Z,20.84
2022-08-17T04:46:17.328Z,18.89
2022-08-17T04:48:52.085Z,20.66
2022-08-17T04:51:20.702Z,20.89
2022-08-17T04:53:54.050Z,20.92
2022-08-17T04:56:24.380Z,20.86
2022-08-17T04:58:54.630Z,21.04
2022-08-17T05:01:28.934Z,17.67
2022-08-17T05:03:59.082Z,19.97
2022-08-17T05:06:27.647Z,21.08
2022-08-17T05:08:55.295Z,21.15
2022-08-17T05:11:23.849Z,20.36
2022-08-17T05:13:50.793Z,21.24
2022-08-17T05:16:19.486Z,20.62
2022-08-17T05:18:46.870Z,20.00
2022-08-17T05:21:14.648Z,19.49
2022-08-17T05:23:43.560Z,21.26
2022-08-17T05:26:25.652Z,19.94
2022-08-17T05:29:00.529Z,20.56
2022-08-17T05:31:31.137Z,18.50
2022-08-17T05:33:59.140Z,19.37
2022-08-17T05:36:43.414Z,17.63
2022-08-17T05:39:16.545Z,19.67
2022-08-17T05:41:48.187Z,20.77
2022-08-17T05:44:16.020Z,21.33
2022-08-17T05:46:48.493Z,20.01
2022-08-17T05:49:20.080Z,21.03
2022-08-17T05:52:20.792Z,21.63
2022-08-17T05:55:11.974Z,20.46
2022-08-17T05:57:53.271Z,22.00
2022-08-17T06:00:30.360Z,21.73
2022-08-17T06:03:16.781Z,22.48
2022-08-17T06:05:52.123Z,22.62
2022-08-17T06:08:54.484Z,22.77
2022-08-17T06:11:45.479Z,22.77
2022-08-17T06:14:32.977Z,22.68
2022-08-17T06:17:08.157Z,21.60
2022-08-17T06:19:39.867Z,22.99
2022-08-17T06:22:09.493Z,23.10
2022-08-17T06:24:42.045Z,20.36
2022-08-17T06:27:19.818Z,22.37
2022-08-17T06:29:51.117Z,23.36
2022-08-17T06:32:19.005Z,21.59
2022-08-17T06:34:46.474Z,21.60
2022-08-17T06:37:26.944Z,23.81
2022-08-17T06:40:15.894Z,24.08
2022-08-17T06:43:07.361Z,24.16
2022-08-17T06:45:43.889Z,25.11
2022-08-17T06:48:13.842Z,25.69
2022-08-17T06:51:10.141Z,25.96
2022-08-17T06:53:49.130Z,25.18
2022-08-17T06:56:53.408Z,24.24
2022-08-17T06:59:54.660Z,25.68
2022-08-17T07:02:29.098Z,25.23
2022-08-17T07:05:10.104Z,24.44
2022-08-17T07:07:57.139Z,25.08
2022-08-17T07:10:25.862Z,21.97
2022-08-17T07:12:54.596Z,24.24
2022-08-17T07:15:45.078Z,24.78
2022-08-17T07:18:12.062Z,22.79
2022-08-17T07:20:42.954Z,24.38
2022-08-17T07:23:28.358Z,26.01
2022-08-17T07:26:07.318Z,25.13
2022-08-17T07:28:36.179Z,24.99
2022-08-17T07:31:04.721Z,27.40
2022-08-17T07:33:36.930Z,27.63
2022-08-17T07:36:04.180Z,25.32
2022-08-17T07:38:33.237Z,25.17
2022-08-17T07:41:05.372Z,27.81
2022-08-17T07:43:35.258Z,25.85
2022-08-17T07:46:30.296Z,27.92
2022-08-17T07:49:16.665Z,27.72
2022-08-17T07:51:43.814Z,27.63
2022-08-17T07:54:22.524Z,27.47
2022-08-17T07:56:51.131Z,27.00
2022-08-17T07:59:24.116Z,26.32
2022-08-17T08:01:58.143Z,27.03
2022-08-17T08:07:22.182Z,26.67
2022-08-17T08:10:35.556Z,26.61
2022-08-17T08:13:15.742Z,25.33
2022-08-17T08:15:53.621Z,25.39
2022-08-17T08:18:53.754Z,25.91
2022-08-17T08:21:41.801Z,26.22
2022-08-17T08:24:11.661Z,26.07
2022-08-17T08:26:41.485Z,26.06
2022-08-17T08:29:29.961Z,25.98
2022-08-17T08:32:00.114Z,25.74
2022-08-17T08:35:02.710Z,25.61
2022-08-17T08:38:08.731Z,25.53
2022-08-17T08:40:55.451Z,24.40
2022-08-17T08:43:37.375Z,25.28
2022-08-17T08:46:23.041Z,25.04
2022-08-17T08:49:18.404Z,24.86
2022-08-17T08:51:53.145Z,24.78
2022-08-17T08:54:35.676Z,24.66
2022-08-17T08:57:26.919Z,24.50
2022-08-17T09:00:16.401Z,24.84
2022-08-17T09:03:04.477Z,23.41
2022-08-17T09:05:40.671Z,24.84
2022-08-17T09:08:16.858Z,24.81
2022-08-17T09:10:59.918Z,24.77
2022-08-17T09:13:59.214Z,24.89
2022-08-17T09:16:56.308Z,24.52
2022-08-17T09:19:59.460Z,24.92
2022-08-17T09:22:36.911Z,24.54
2022-08-17T09:25:12.171Z,22.91
2022-08-17T09:28:03.567Z,24.67
2022-08-17T09:31:03.799Z,23.88
2022-08-17T09:33:34.968Z,23.06
2022-08-17T09:36:26.795Z,23.57
2022-08-17T09:38:58.412Z,23.91
2022-08-17T09:41:33.711Z,24.47
2022-08-17T09:44:30.118Z,24.46
2022-08-17T09:47:28.012Z,23.96
2022-08-17T09:50:11.519Z,23.61
2022-08-17T09:52:39.281Z,19.99
2022-08-17T09:55:06.555Z,23.27
2022-08-17T09:57:42.904Z,24.12
2022-08-17T10:00:16.560Z,24.00
2022-08-17T10:03:03.255Z,23.83
2022-08-17T10:05:43.220Z,23.61
2022-08-17T10:08:36.404Z,24.08
2022-08-17T10:11:13.311Z,24.14
2022-08-17T10:13:53.093Z,24.16
2022-08-17T10:16:29.868Z,24.30
2022-08-17T10:19:08.271Z,23.95
2022-08-17T10:22:01.214Z,24.35
2022-08-17T10:25:23.474Z,24.88
2022-08-17T10:27:55.012Z,23.14
2022-08-17T10:30:25.549Z,25.83
2022-08-17T10:33:01.958Z,26.20
2022-08-17T10:35:41.338Z,23.88
2022-08-17T10:38:31.333Z,26.98
2022-08-17T10:41:07.049Z,26.97
2022-08-17T10:43:36.913Z,26.97
2022-08-17T10:46:30.905Z,27.13
2022-08-17T10:49:17.385Z,27.38
2022-08-17T10:51:48.174Z,25.16
2022-08-17T10:54:24.189Z,28.07
2022-08-17T10:56:53.930Z,28.39
2022-08-17T10:59:36.322Z,29.10
2022-08-17T11:02:28.159Z,29.43
2022-08-17T11:05:04.356Z,29.68
2022-08-17T11:07:37.190Z,29.34
2022-08-17T11:10:32.935Z,29.00
2022-08-17T11:13:09.016Z,28.73
2022-08-17T11:15:52.108Z,28.58
2022-08-17T11:18:19.002Z,28.68
2022-08-17T11:20:48.896Z,28.76
2022-08-17T11:23:38.308Z,29.02
2022-08-17T11:26:25.968Z,27.80
2022-08-17T11:28:59.599Z,28.20
2022-08-17T11:31:38.442Z,28.88
2022-08-17T11:34:22.407Z,27.38
2022-08-17T11:36:52.350Z,28.60
2022-08-17T11:39:23.122Z,28.57
2022-08-17T11:41:58.628Z,26.99
2022-08-17T11:44:32.428Z,28.73
2022-08-17T11:48:08.927Z,29.04
2022-08-17T11:51:47.266Z,28.89
2022-08-17T11:54:34.393Z,29.82
2022-08-17T11:57:29.426Z,29.72
2022-08-17T12:00:10.328Z,28.27
2022-08-17T12:02:48.070Z,28.94
2022-08-17T12:05:26.282Z,30.28
2022-08-17T12:08:05.633Z,27.42
2022-08-17T12:10:36.393Z,27.40
2022-08-17T12:13:13.319Z,30.40
2022-08-17T12:15:45.165Z,29.78
2022-08-17T12:18:28.014Z,28.61
2022-08-17T12:21:22.311Z,29.50
2022-08-17T12:23:56.972Z,25.48
2022-08-17T12:26:35.825Z,25.30
2022-08-17T12:29:39.033Z,25.30
2022-08-17T12:31:55.261Z,26.19
2022-08-17T12:34:36.335Z,28.65
2022-08-17T12:37:07.635Z,28.16
2022-08-17T12:39:35.455Z,26.51
2022-08-17T12:42:04.760Z,27.91
2022-08-17T12:44:35.098Z,28.13
2022-08-17T12:47:21.060Z,24.13
2022-08-17T12:49:51.801Z,25.48
2022-08-17T12:52:28.337Z,26.88
2022-08-17T12:55:21.289Z,29.24
2022-08-17T12:57:54.993Z,28.55
2022-08-17T13:00:41.215Z,26.70
2022-08-17T13:03:21.082Z,27.53
2022-08-17T13:05:56.602Z,28.35
2022-08-17T13:08:34.044Z,28.87
2022-08-17T13:11:04.006Z,29.11
2022-08-17T13:13:36.664Z,28.64
2022-08-17T13:16:09.560Z,29.14
2022-08-17T13:18:38.936Z,28.08
2022-08-17T13:21:11.914Z,27.90
2022-08-17T13:23:39.004Z,27.31
2022-08-17T13:26:15.580Z,26.66
2022-08-17T13:28:49.758Z,29.07
2022-08-17T13:31:27.889Z,28.92
2022-08-17T13:34:26.697Z,28.62
2022-08-17T13:37:17.675Z,26.87
2022-08-17T13:39:51.398Z,27.54
2022-08-17T13:42:52.058Z,28.68
2022-08-17T13:45:36.353Z,29.21
2022-08-17T13:48:16.531Z,29.59
2022-08-17T13:51:03.109Z,28.97
2022-08-17T13:53:40.498Z,27.54
2022-08-17T13:56:37.983Z,27.11
2022-08-17T13:59:36.076Z,28.98
2022-08-17T14:02:21.309Z,26.39
2022-08-17T14:04:48.848Z,29.42
2022-08-17T14:07:18.194Z,29.49
2022-08-17T14:10:10.909Z,28.20
2022-08-17T14:12:39.462Z,28.05
2022-08-17T14:15:08.059Z,27.90
2022-08-17T14:17:38.865Z,27.99
2022-08-17T14:20:09.677Z,27.23
2022-08-17T14:22:39.916Z,25.23
2022-08-17T14:25:10.255Z,29.22
2022-08-17T14:27:41.872Z,26.72
2022-08-17T14:30:22.257Z,28.58
2022-08-17T14:32:49.635Z,29.46
2022-08-17T14:35:17.199Z,29.40
2022-08-17T14:37:48.978Z,29.70
2022-08-17T14:40:21.000Z,29.40
2022-08-17T14:42:48.547Z,27.43
2022-08-17T14:45:30.458Z,26.57
2022-08-17T14:48:08.498Z,29.74
2022-08-17T14:50:39.196Z,26.32
2022-08-17T14:53:07.731Z,26.17
2022-08-17T14:55:36.370Z,26.68
2022-08-17T14:58:04.169Z,26.82
2022-08-17T15:00:32.476Z,26.96
2022-08-17T15:03:01.298Z,26.65
2022-08-17T15:05:32.408Z,25.82
2022-08-17T15:08:03.280Z,27.11
2022-08-17T15:10:32.998Z,27.75
2022-08-17T15:13:00.451Z,28.02
2022-08-17T15:15:28.333Z,28.23
2022-08-17T15:17:56.162Z,28.37
2022-08-17T15:20:27.747Z,26.71
2022-08-17T15:22:56.061Z,28.23
2022-08-17T15:25:24.819Z,26.87
2022-08-17T15:27:52.152Z,27.21
2022-08-17T15:30:21.014Z,27.86
2022-08-17T15:32:51.187Z,26.34
2022-08-17T15:35:28.026Z,26.20
2022-08-17T15:37:57.888Z,28.41
2022-08-17T15:40:25.242Z,28.46
2022-08-17T15:42:53.051Z,27.34
2022-08-17T15:45:24.723Z,23.10
2022-08-17T15:47:53.592Z,25.59
2022-08-17T15:50:21.100Z,26.82
2022-08-17T15:52:55.348Z,26.16
2022-08-17T15:55:24.286Z,27.85
2022-08-17T15:57:53.377Z,26.49
2022-08-17T16:00:27.970Z,26.40
2022-08-17T16:03:46.050Z,27.16
2022-08-17T16:05:44.830Z,27.30
2022-08-17T16:08:21.271Z,24.72
2022-08-17T16:10:50.288Z,26.71
2022-08-17T16:13:18.925Z,26.31
2022-08-17T16:15:57.282Z,25.19
2022-08-17T16:18:31.445Z,27.36
2022-08-17T16:21:24.174Z,25.36
2022-08-17T16:26:39.283Z,26.08
2022-08-17T16:29:08.440Z,25.00
2022-08-17T16:31:37.918Z,27.06
2022-08-17T16:34:17.527Z,25.79
2022-08-17T16:36:55.242Z,25.72
2022-08-17T16:39:33.891Z,25.88
2022-08-17T16:42:03.049Z,25.53
2022-08-17T16:44:32.397Z,24.93
2022-08-17T16:47:03.022Z,23.76
2022-08-17T16:49:37.199Z,23.54
2022-08-17T16:52:10.605Z,26.99
2022-08-17T16:54:41.990Z,24.96
2022-08-17T16:57:11.392Z,26.73
2022-08-17T16:59:42.633Z,23.96
2022-08-17T17:02:13.691Z,24.80
2022-08-17T17:05:03.098Z,26.48
2022-08-17T17:07:44.654Z,24.97
2022-08-17T17:10:27.699Z,23.64
2022-08-17T17:13:02.781Z,21.25
2022-08-17T17:15:56.388Z,24.98
2022-08-17T17:18:41.106Z,26.19
2022-08-17T17:21:14.361Z,26.00
2022-08-17T17:23:45.213Z,23.03
2022-08-17T17:27:02.204Z,25.77
2022-08-17T17:30:00.643Z,22.33
2022-08-17T17:32:38.284Z,21.98
2022-08-17T17:35:17.390Z,25.48
2022-08-17T17:37:45.983Z,21.64
2022-08-17T17:40:36.138Z,22.83
2022-08-17T17:43:34.777Z,22.79
2022-08-17T17:46:26.625Z,25.28
2022-08-17T17:48:46.314Z,24.01
2022-08-17T17:52:08.550Z,25.08
2022-08-17T17:54:46.857Z,25.00
2022-08-17T17:57:33.902Z,23.62
2022-08-17T18:00:14.376Z,23.42
2022-08-17T18:02:51.503Z,24.68
2022-08-17T18:05:39.801Z,24.61
2022-08-17T18:08:32.396Z,24.54
2022-08-17T18:11:24.053Z,24.48
2022-08-17T18:14:00.829Z,24.42
2022-08-17T18:16:32.079Z,21.76
2022-08-17T18:18:59.809Z,22.79
2022-08-17T18:21:48.200Z,22.34
2022-08-17T18:24:15.214Z,22.97
2022-08-17T18:26:47.917Z,23.91
2022-08-17T18:29:28.032Z,23.83
2022-08-17T18:32:12.847Z,23.11
2022-08-17T18:34:48.282Z,22.39
2022-08-17T18:37:36.090Z,21.60
2022-08-17T18:40:20.631Z,23.41
2022-08-17T18:43:07.978Z,20.69
2022-08-17T18:45:45.442Z,20.06
2022-08-17T18:48:36.791Z,23.17
2022-08-17T18:51:49.413Z,22.53
2022-08-17T18:54:16.811Z,23.02
2022-08-17T18:56:49.485Z,21.14
2022-08-17T19:02:20.700Z,22.83
2022-08-17T19:05:13.451Z,22.17
2022-08-17T19:07:43.551Z,20.32
2022-08-17T19:10:28.877Z,22.64
2022-08-17T19:13:13.049Z,21.26
2022-08-17T19:16:14.443Z,20.89
2022-08-17T19:18:49.205Z,21.14
2022-08-17T19:21:23.087Z,21.79
2022-08-17T19:24:07.248Z,22.40
2022-08-17T19:26:53.318Z,20.41
2022-08-17T19:29:47.025Z,22.22
2022-08-17T19:32:18.565Z,22.22
2022-08-17T19:34:45.895Z,22.25
2022-08-17T19:37:22.438Z,22.26
2022-08-17T19:40:52.141Z,21.59
2022-08-17T19:43:48.484Z,22.15
2022-08-17T19:46:49.977Z,20.90
2022-08-17T19:49:41.473Z,21.43
2022-08-17T19:52:22.618Z,21.96
2022-08-17T19:55:02.456Z,20.18
2022-08-17T19:57:37.296Z,19.44
2022-08-17T20:00:14.257Z,20.41
2022-08-17T20:02:55.343Z,21.67
2022-08-17T20:06:10.831Z,20.86
2022-08-17T20:08:41.487Z,20.65
2022-08-17T20:11:13.855Z,20.42
2022-08-17T20:14:02.355Z,20.40
2022-08-17T20:16:30.724Z,21.02
2022-08-17T20:19:05.728Z,21.42
2022-08-17T20:21:42.273Z,21.35
2022-08-17T20:24:21.338Z,19.21
2022-08-17T20:27:17.810Z,21.21
2022-08-17T20:30:00.193Z,20.54
2022-08-17T20:32:29.798Z,19.84
2022-08-17T20:35:08.350Z,20.22
2022-08-17T20:37:36.815Z,19.26
2022-08-17T20:40:09.888Z,21.20
2022-08-17T20:42:38.440Z,19.35
2022-08-17T20:45:20.791Z,21.21
2022-08-17T20:48:18.694Z,21.17
2022-08-17T20:50:43.635Z,21.13
2022-08-17T20:53:15.132Z,20.16
2022-08-17T20:55:52.442Z,21.12
2022-08-17T20:58:24.498Z,21.07
2022-08-17T21:00:57.209Z,21.05
2022-08-17T21:03:24.370Z,21.05
2022-08-17T21:06:15.306Z,19.78
2022-08-17T21:08:57.658Z,20.95
2022-08-17T21:11:56.716Z,20.87
2022-08-17T21:14:20.277Z,20.75
2022-08-17T21:16:56.626Z,20.74
2022-08-17T21:20:10.340Z,20.72
2022-08-17T21:23:00.295Z,20.70
2022-08-17T21:25:40.139Z,20.65
2022-08-17T21:28:30.093Z,20.60
2022-08-17T21:31:08.389Z,18.14
2022-08-17T21:33:38.806Z,19.16
2022-08-17T21:36:15.503Z,20.36
2022-08-17T21:38:49.025Z,20.33
2022-08-17T21:41:24.776Z,20.28
2022-08-17T21:43:58.253Z,16.56
2022-08-17T21:46:30.578Z,16.18
2022-08-17T21:49:13.456Z,20.06
2022-08-17T21:51:50.891Z,20.21
2022-08-17T21:54:21.178Z,20.18
2022-08-17T21:56:48.601Z,20.12
2022-08-17T21:59:21.972Z,20.07
2022-08-17T22:02:01.903Z,19.37
2022-08-17T22:04:35.583Z,17.87
2022-08-17T22:07:06.543Z,20.03
2022-08-17T22:09:50.584Z,20.06
2022-08-17T22:12:20.827Z,20.02
2022-08-17T22:14:54.306Z,19.97
2022-08-17T22:17:27.481Z,18.69
2022-08-17T22:20:19.659Z,19.90
2022-08-17T22:23:04.964Z,19.80
2022-08-17T22:25:36.188Z,17.11
2022-08-17T22:28:06.144Z,14.11
2022-08-17T22:30:40.048Z,19.57
2022-08-17T22:33:36.096Z,18.78
2022-08-17T22:36:24.325Z,17.28
2022-08-17T22:39:00.526Z,18.63
2022-08-17T22:41:54.339Z,15.47
2022-08-17T22:44:38.507Z,19.01
2022-08-17T22:47:15.539Z,19.43
2022-08-17T22:49:53.209Z,19.39
2022-08-17T22:52:31.563Z,19.42
2022-08-17T22:55:31.382Z,19.48
2022-08-17T22:58:18.137Z,15.69
2022-08-17T23:00:48.171Z,16.79
2022-08-17T23:03:22.240Z,17.29
2022-08-17T23:06:07.967Z,18.23
2022-08-17T23:08:46.299Z,19.29
2022-08-17T23:11:17.557Z,18.15
2022-08-17T23:13:45.940Z,18.75
2022-08-17T23:16:14.961Z,18.23
2022-08-17T23:18:41.908Z,17.40
2022-08-17T23:21:08.905Z,19.49
2022-08-17T23:23:43.805Z,19.45
2022-08-17T23:26:11.292Z,15.20
2022-08-17T23:28:38.307Z,18.38
2022-08-17T23:31:05.605Z,19.28
2022-08-17T23:33:38.625Z,15.88
2022-08-17T23:36:07.496Z,16.79
2022-08-17T23:38:35.170Z,18.60
2022-08-17T23:41:05.684Z,19.28
2022-08-17T23:43:33.051Z,17.73
2022-08-17T23:46:00.661Z,16.68
2022-08-17T23:48:35.919Z,17.18
2022-08-17T23:51:09.087Z,15.97
2022-08-17T23:53:37.566Z,17.96
2022-08-17T23:56:10.361Z,17.72
2022-08-17T23:58:45.897Z,16.97
